Terminal Aerodrome Forecast
Issued by NWS Buffalo, NY

Home | Current Version | Previous Version | Text Only | Print | Product List | Glossary On
Versions: 1 2 3 4 5 6 7 8 9 10 11 12 13 14 15 16 17 18 19 20 21 22 23 24 25 26 27 28 29 30 31
000
FTUS41 KBUF 310900 AAB
TAFBUF
TAF AMD
KBUF 310921Z 3109/0106 19004KT P6SM SCT020 OVC050
     FM311100 VRB03KT P6SM VCTS BKN050CB BKN200
     FM311300 VRB03KT 6SM -TSRA BKN035CB OVC150
     FM311400 23009KT P6SM BKN035 BKN130
     FM010300 19006KT P6SM SCT040=

USA.gov is the U.S. government's official web portal to all federal, state and local government web resources and services.